Terminal Aerodrome Forecast
Issued by NWS

Home | Current Version | Previous Version | Graphics & Text | Print | Product List | Glossary On
Versions: 1 2 3 4 5 6 7 8 9 10 11 12 13 14 15 16 17 18 19 20 21 22 23 24 25 26 27 28 29 30 31 32 33 34 35 36
457
FTUS43 KDLH 140533
TAFHIB
TAF
KHIB 140533Z 1406/1506 33005KT P6SM -SN OVC010
     FM140900 VRB03KT 6SM -SN OVC008
     FM141200 32005KT 5SM -SN BKN012 OVC025
     FM141800 30006KT P6SM -SN BKN020
     FM150400 30007KT P6SM BKN030=

USA.gov is the U.S. government's official web portal to all federal, state and local government web resources and services.